Banner Elk, NC (28604)

6:26 PM EDT on June 03, 2015 (GMT -0400)
Sugar Mountain | | Change Station
CLOSE
Current Station
Personal Weather Station
Location: Banner Elk, NC
Elevation: 4910 ft
Nearby Weather Stations

Elev 4910 ft 36.12 °N, 81.87 °W | Updated 5 minutes ago

Overcast
Overcast
55.8 °F
Feels Like 55.8 °F
N
0.0
Wind Variable Wind from NE
Gusts 1.0 mph

Today
High -- | Low -- °F
--% Chance of Precip.
Yesterday
High -- | Low -- °F
Precip. -- in
6:10 AM 8:40 PM
Full, 98% visible
Pressure 30.11 in
Visibility 10.0 miles
Clouds Scattered Clouds 600 ft
Mostly Cloudy 2300 ft
Overcast 2800 ft
Dew Point 54 °F
Humidity 92%
Rainfall 0.00 in
Snow Depth Not available.
UV 1 out of 12
Pollen 4.00 out of 12
Air Quality Not available.
Flu Activity No Activity
METAR KTNB 032215Z AUTO 09006KT 10SM SCT006 BKN023 OVC028 16/15 A3011 RMK AO2 LTG DSNT SW T01640149

More Conditions Fewer Conditions

Pressure 30.11 in
Visibility 10.0 miles
Clouds Scattered Clouds 600 ft
Mostly Cloudy 2300 ft
Overcast 2800 ft
Dew Point 54 °F
Humidity 92%
Rainfall 0.00 in
Snow Depth Not available.
UV 1 out of 12
Pollen 4.00 out of 12
Air Quality Not available.
Flu Activity No Activity
METAR KTNB 032215Z AUTO 09006KT 10SM SCT006 BKN023 OVC028 16/15 A3011 RMK AO2 LTG DSNT SW T01640149

More Conditions Fewer Conditions

10-Day Weather Forecast

×

Almanac

Astronomy

Jun. 03, 2015 Rise Set
Actual Time
Civil Twilight
Nautical Twilight
Astronomical Twilight
Moon
Length of Visible Light
Length of Day
Tomorrow will be .
, % of the Moon is Illuminated

Today's Extremes

State Highs State Lows

Community

WunderPhotos

Upload Photos

1,826,295 photos uploaded!

WunderBlogs® & News

Nearby

Air Quality

  Air Quality AQ Index Pollutant
Not available.

Snow Depth

Station Depth Elevation

Earthquake Activity

City Distance Mag. Time & Date
Minimum magnitude displayed is 2.5.

Coastal Water Temperatures

Place Temperature

Stations

Nearby Weather Stations

Station Location Temp. Windchill Dew Point Humidity Wind Precip. Elev Updated Type